createdAt,value
2018-06-29T00:00:42.318Z,0.00
2018-06-29T00:01:43.203Z,0.00
2018-06-29T00:02:43.102Z,0.00
2018-06-29T00:03:43.669Z,0.00
2018-06-29T00:04:45.440Z,0.00
2018-06-29T00:05:46.214Z,0.00
2018-06-29T00:06:47.008Z,0.00
2018-06-29T00:07:47.780Z,0.00
2018-06-29T00:08:48.554Z,0.00
2018-06-29T00:09:49.354Z,0.00
2018-06-29T00:10:50.120Z,0.00
2018-06-29T00:11:50.914Z,0.00
2018-06-29T00:12:51.683Z,0.00
2018-06-29T00:13:52.456Z,0.00
2018-06-29T00:14:53.232Z,0.00
2018-06-29T00:15:53.999Z,0.00
2018-06-29T00:16:54.801Z,0.00
2018-06-29T00:17:55.569Z,0.00
2018-06-29T00:18:56.342Z,0.00
2018-06-29T00:19:57.111Z,0.00
2018-06-29T00:20:57.884Z,0.00
2018-06-29T00:21:58.684Z,0.00
2018-06-29T00:22:59.452Z,0.00
2018-06-29T00:24:00.232Z,0.00
2018-06-29T00:25:01.035Z,0.00
2018-06-29T00:26:01.782Z,0.00
2018-06-29T00:27:02.583Z,0.00
2018-06-29T00:28:03.357Z,0.00
2018-06-29T00:29:04.129Z,0.00
2018-06-29T00:30:04.896Z,0.00
2018-06-29T00:31:05.681Z,0.00
2018-06-29T00:32:05.468Z,0.00
2018-06-29T00:33:07.240Z,0.00
2018-06-29T00:34:08.010Z,0.00
2018-06-29T00:35:08.781Z,0.00
2018-06-29T00:36:09.656Z,0.00
2018-06-29T00:37:35.762Z,0.00
2018-06-29T00:38:36.529Z,0.00
2018-06-29T00:39:37.306Z,0.00
2018-06-29T00:40:38.071Z,0.00
2018-06-29T00:41:38.841Z,0.00
2018-06-29T00:42:39.641Z,0.00
2018-06-29T00:43:40.407Z,0.00
2018-06-29T00:44:41.178Z,0.00
2018-06-29T00:45:41.954Z,0.00
2018-06-29T00:46:42.722Z,0.00
2018-06-29T00:47:43.519Z,0.00
2018-06-29T00:48:44.289Z,0.00
2018-06-29T00:49:45.063Z,0.00
2018-06-29T00:50:45.830Z,0.00
2018-06-29T00:51:46.605Z,0.00
2018-06-29T00:52:47.400Z,0.00
2018-06-29T00:53:48.169Z,0.00
2018-06-29T00:54:48.942Z,0.00
2018-06-29T00:55:49.716Z,0.00
2018-06-29T00:56:50.487Z,0.00
2018-06-29T00:57:51.280Z,0.00
2018-06-29T00:58:52.052Z,0.00
2018-06-29T00:59:52.825Z,0.00
2018-06-29T01:00:53.595Z,0.00
2018-06-29T01:01:54.364Z,0.00
2018-06-29T01:02:55.208Z,0.00
2018-06-29T01:03:54.931Z,0.00
2018-06-29T01:04:56.706Z,0.00
2018-06-29T01:05:57.475Z,0.00
2018-06-29T01:06:58.248Z,0.00
2018-06-29T01:07:59.045Z,0.00
2018-06-29T01:08:59.814Z,0.00
2018-06-29T01:10:00.585Z,0.00
2018-06-29T01:11:01.358Z,0.00
2018-06-29T01:12:02.127Z,0.00
2018-06-29T01:13:02.926Z,0.00
2018-06-29T01:14:03.699Z,0.00
2018-06-29T01:15:04.476Z,0.00
2018-06-29T01:16:05.244Z,0.00
2018-06-29T01:17:06.019Z,0.00
2018-06-29T01:18:06.816Z,0.00
2018-06-29T01:19:07.590Z,0.00
2018-06-29T01:20:08.360Z,0.00
2018-06-29T01:21:09.133Z,0.00
2018-06-29T01:22:09.906Z,0.00
2018-06-29T01:23:10.707Z,0.00
2018-06-29T01:24:11.475Z,0.00
2018-06-29T01:25:12.249Z,0.00
2018-06-29T01:26:13.021Z,0.00
2018-06-29T01:27:13.793Z,0.00
2018-06-29T01:28:14.586Z,0.00
2018-06-29T01:29:15.361Z,0.00
2018-06-29T01:30:16.133Z,0.00
2018-06-29T01:31:16.904Z,0.00
2018-06-29T01:32:17.681Z,0.00
2018-06-29T01:33:18.478Z,0.00
2018-06-29T01:34:19.250Z,0.00
2018-06-29T01:35:20.021Z,0.00
2018-06-29T01:36:20.792Z,0.00
2018-06-29T01:37:20.565Z,0.00
2018-06-29T01:38:22.364Z,0.00
2018-06-29T01:39:23.135Z,0.00
2018-06-29T01:40:23.904Z,0.00
2018-06-29T01:41:24.696Z,0.00
2018-06-29T01:42:24.451Z,0.00
2018-06-29T01:43:26.253Z,1.26
2018-06-29T01:44:33.022Z,3.24
2018-06-29T01:50:24.060Z,0.31
2018-06-29T01:51:40.872Z,0.00
2018-06-29T01:52:25.797Z,0.00
2018-06-29T01:53:24.336Z,0.00
2018-06-29T01:54:26.154Z,0.00
2018-06-29T01:55:25.919Z,0.00
2018-06-29T01:56:27.689Z,0.00
2018-06-29T01:57:28.475Z,0.00
2018-06-29T01:58:29.238Z,0.00
2018-06-29T01:59:30.010Z,0.00
2018-06-29T02:00:30.807Z,0.00
2018-06-29T02:01:31.587Z,0.00
2018-06-29T02:02:32.366Z,0.00
2018-06-29T02:03:33.142Z,0.00
2018-06-29T02:04:33.909Z,0.00
2018-06-29T02:05:35.385Z,0.00
2018-06-29T02:06:37.575Z,0.00
2018-06-29T02:07:43.771Z,0.00
2018-06-29T02:08:35.729Z,0.00
2018-06-29T02:09:37.534Z,0.00
2018-06-29T02:10:38.379Z,0.00
2018-06-29T02:11:41.576Z,0.00
2018-06-29T02:12:38.912Z,0.00
2018-06-29T02:13:43.132Z,0.00
2018-06-29T02:15:10.833Z,0.00
2018-06-29T02:16:12.668Z,0.00
2018-06-29T02:17:13.432Z,0.00
2018-06-29T02:18:14.188Z,0.00
2018-06-29T02:19:14.961Z,0.00
2018-06-29T02:20:15.736Z,0.00
2018-06-29T02:21:16.534Z,0.00
2018-06-29T02:22:17.302Z,0.00
2018-06-29T02:23:18.073Z,0.00
2018-06-29T02:24:18.848Z,0.00
2018-06-29T02:25:19.620Z,0.00
2018-06-29T02:26:20.427Z,0.00
2018-06-29T02:27:21.240Z,0.05
2018-06-29T02:28:20.964Z,0.05
2018-06-29T02:29:22.737Z,0.05
2018-06-29T02:30:25.014Z,0.05
2018-06-29T02:31:23.320Z,0.05
2018-06-29T02:32:25.089Z,0.05
2018-06-29T02:33:28.073Z,0.05
2018-06-29T02:34:27.828Z,0.05
2018-06-29T02:35:26.429Z,0.05
2018-06-29T02:36:28.233Z,0.09
2018-06-29T02:37:29.007Z,0.09
2018-06-29T02:38:29.786Z,0.14
2018-06-29T02:39:30.560Z,0.14
2018-06-29T02:40:31.340Z,0.18
2018-06-29T02:41:34.294Z,0.18
2018-06-29T02:42:31.903Z,0.22
2018-06-29T02:43:36.117Z,0.22
2018-06-29T02:44:33.464Z,0.27
2018-06-29T02:45:35.243Z,0.31
2018-06-29T02:46:36.761Z,0.41
2018-06-29T02:47:47.193Z,0.45
2018-06-29T02:48:36.457Z,0.54
2018-06-29T02:49:37.232Z,0.63
2018-06-29T02:50:39.011Z,0.76
2018-06-29T02:51:38.782Z,0.90
2018-06-29T02:52:40.590Z,1.03
2018-06-29T02:53:46.326Z,1.17
2018-06-29T02:54:42.155Z,1.30
2018-06-29T02:55:41.879Z,1.49
2018-06-29T02:56:45.964Z,1.71
2018-06-29T02:57:43.468Z,1.89
2018-06-29T02:58:48.251Z,2.20
2018-06-29T02:59:46.070Z,2.47
2018-06-29T03:00:45.797Z,2.84
2018-06-29T03:01:47.619Z,3.19
2018-06-29T03:02:48.377Z,3.56
2018-06-29T03:03:51.349Z,4.01
2018-06-29T03:04:48.938Z,4.45
2018-06-29T03:05:53.212Z,4.95
2018-06-29T03:06:50.511Z,5.53
2018-06-29T03:07:52.284Z,6.16
2018-06-29T03:08:53.057Z,6.70
2018-06-29T03:09:56.262Z,7.38
2018-06-29T03:10:53.692Z,8.10
2018-06-29T03:11:58.276Z,8.82
2018-06-29T03:12:54.663Z,9.54
2018-06-29T03:13:56.420Z,10.44
2018-06-29T03:14:57.187Z,11.39
2018-06-29T03:15:57.957Z,12.24
2018-06-29T03:16:58.756Z,13.32
2018-06-29T03:17:59.541Z,14.40
2018-06-29T03:19:05.481Z,15.66
2018-06-29T03:20:07.049Z,16.92
2018-06-29T03:21:00.625Z,18.18
2018-06-29T03:22:04.873Z,19.53
2018-06-29T03:23:02.244Z,21.33
2018-06-29T03:24:11.624Z,23.40
2018-06-29T03:25:03.803Z,26.10
2018-06-29T03:26:23.664Z,28.98
2018-06-29T03:27:09.660Z,32.04
2018-06-29T03:28:07.807Z,34.74
2018-06-29T03:29:21.233Z,37.08
2018-06-29T03:30:12.383Z,40.32
2018-06-29T03:31:09.954Z,44.28
2018-06-29T03:32:08.630Z,48.96
2018-06-29T03:33:12.807Z,54.00
2018-06-29T03:34:12.468Z,59.04
2018-06-29T03:35:11.006Z,63.72
2018-06-29T03:36:20.355Z,68.04
2018-06-29T03:37:17.776Z,71.28
2018-06-29T03:38:13.196Z,74.16
2018-06-29T03:39:17.391Z,77.04
2018-06-29T03:40:14.829Z,79.56
2018-06-29T03:41:15.590Z,82.08
2018-06-29T03:42:16.356Z,85.32
2018-06-29T03:43:21.201Z,87.84
2018-06-29T03:44:21.210Z,90.00
2018-06-29T03:45:18.790Z,92.88
2018-06-29T03:46:23.568Z,97.20
2018-06-29T03:47:21.404Z,102.24
2018-06-29T03:48:23.619Z,107.28
2018-06-29T03:49:22.011Z,112.32
2018-06-29T03:50:22.755Z,117.36
2018-06-29T03:51:26.689Z,123.12
2018-06-29T03:52:24.825Z,128.16
2018-06-29T03:53:28.136Z,132.48
2018-06-29T03:54:25.401Z,135.36
2018-06-29T03:55:34.772Z,138.24
2018-06-29T03:56:26.985Z,142.56
2018-06-29T03:57:27.751Z,146.16
2018-06-29T03:58:29.541Z,151.20
2018-06-29T03:59:30.317Z,154.80
2018-06-29T04:00:33.253Z,159.84
2018-06-29T04:01:30.967Z,166.32
2018-06-29T04:02:34.246Z,172.08
2018-06-29T04:03:32.533Z,174.96
2018-06-29T04:04:34.306Z,174.96
2018-06-29T04:05:35.120Z,176.40
2018-06-29T04:06:34.888Z,180.00
2018-06-29T04:07:35.659Z,185.76
2018-06-29T04:08:37.426Z,194.40
2018-06-29T04:09:38.240Z,200.16
2018-06-29T04:10:46.493Z,204.48
2018-06-29T04:11:38.813Z,208.80
2018-06-29T04:12:40.638Z,211.68
2018-06-29T04:13:41.480Z,216.00
2018-06-29T04:14:41.206Z,223.20
2018-06-29T04:15:45.720Z,233.28
2018-06-29T04:16:43.494Z,243.36
2018-06-29T04:17:44.298Z,254.88
2018-06-29T04:18:45.064Z,266.40
2018-06-29T04:19:45.838Z,277.92
2018-06-29T04:20:46.612Z,289.44
2018-06-29T04:21:47.391Z,299.52
2018-06-29T04:22:48.179Z,313.92
2018-06-29T04:23:48.950Z,331.20
2018-06-29T04:24:49.729Z,345.60
2018-06-29T04:26:08.060Z,364.32
2018-06-29T04:27:06.601Z,380.16
2018-06-29T04:27:59.412Z,391.68
2018-06-29T04:40:39.208Z,630.72
2018-06-29T04:43:11.030Z,702.72
2018-06-29T04:45:34.544Z,766.08
2018-06-29T04:46:26.404Z,789.12
2018-06-29T04:47:27.984Z,817.92
2018-06-29T04:48:46.434Z,840.96
2018-06-29T04:49:32.825Z,864.00
2018-06-29T04:50:31.661Z,881.28
2018-06-29T04:51:44.354Z,898.56
2018-06-29T04:53:03.249Z,915.84
2018-06-29T04:59:26.095Z,1059.84
2018-06-29T05:00:04.808Z,1031.04
2018-06-29T05:00:59.763Z,996.48
2018-06-29T05:04:51.337Z,933.12
2018-06-29T05:05:25.242Z,967.68
2018-06-29T05:05:38.311Z,938.88
2018-06-29T05:06:18.666Z,996.48
2018-06-29T05:08:41.727Z,1031.04
2018-06-29T05:15:31.088Z,1399.68
2018-06-29T05:21:28.932Z,1411.20
2018-06-29T05:21:55.824Z,1428.48
2018-06-29T05:22:45.710Z,1399.68
2018-06-29T05:24:30.292Z,1468.80
2018-06-29T05:25:52.058Z,1497.60
2018-06-29T05:26:39.639Z,1509.12
2018-06-29T05:27:26.887Z,1520.64
2018-06-29T05:29:13.648Z,1509.12
2018-06-29T05:30:38.553Z,1578.24
2018-06-29T05:30:52.719Z,1509.12
2018-06-29T05:31:34.566Z,1635.84
2018-06-29T05:32:32.166Z,1716.48
2018-06-29T05:33:46.008Z,1693.44
2018-06-29T05:35:13.405Z,1820.16
2018-06-29T05:36:14.050Z,2995.20
2018-06-29T05:37:11.821Z,2730.24
2018-06-29T05:38:12.612Z,2891.52
2018-06-29T05:39:13.354Z,2822.40
2018-06-29T05:40:15.161Z,2787.84
2018-06-29T05:41:17.973Z,2753.28
2018-06-29T05:42:19.509Z,2753.28
2018-06-29T05:43:19.027Z,2764.80
2018-06-29T05:44:17.831Z,2787.84
2018-06-29T05:45:35.309Z,2787.84
2018-06-29T05:46:24.162Z,2799.36
2018-06-29T05:47:27.001Z,2799.36
2018-06-29T05:48:28.417Z,2810.88
2018-06-29T06:02:30.921Z,2822.40
2018-06-29T06:03:37.416Z,2833.92
2018-06-29T06:04:35.661Z,2845.44
2018-06-29T06:05:32.902Z,2868.48
2018-06-29T06:06:48.669Z,2880.00
2018-06-29T06:07:28.809Z,2903.04
2018-06-29T06:08:33.153Z,2914.56
2018-06-29T06:09:30.366Z,2914.56
2018-06-29T06:10:32.137Z,2926.08
2018-06-29T06:11:32.910Z,2937.60
2018-06-29T06:12:33.684Z,2972.16
2018-06-29T06:13:34.526Z,2972.16
2018-06-29T06:14:34.261Z,2995.20
2018-06-29T06:15:36.082Z,2995.20
2018-06-29T06:16:41.353Z,2995.20
2018-06-29T06:17:44.005Z,2995.20
2018-06-29T06:18:37.536Z,3018.24
2018-06-29T06:19:38.263Z,3018.24
2018-06-29T06:20:40.042Z,3018.24
2018-06-29T06:21:40.820Z,3041.28
2018-06-29T06:22:44.364Z,3041.28
2018-06-29T06:23:42.158Z,3041.28
2018-06-29T06:24:42.930Z,3041.28
2018-06-29T06:25:43.728Z,3064.32
2018-06-29T06:26:46.980Z,3064.32
2018-06-29T06:27:44.289Z,3064.32
2018-06-29T06:28:49.106Z,3064.32
2018-06-29T06:29:46.856Z,3064.32
2018-06-29T06:30:47.638Z,3087.36
2018-06-29T06:31:48.433Z,3087.36
2018-06-29T06:32:55.207Z,3087.36
2018-06-29T06:33:50.061Z,3087.36
2018-06-29T06:34:50.835Z,3110.40
2018-06-29T06:36:12.616Z,3110.40
2018-06-29T06:36:51.386Z,3110.40
2018-06-29T06:37:53.160Z,3110.40
2018-06-29T06:38:53.977Z,3110.40
2018-06-29T06:39:57.212Z,3110.40
2018-06-29T06:40:56.746Z,3110.40
2018-06-29T06:42:02.541Z,3133.44
2018-06-29T06:43:22.454Z,3133.44
2018-06-29T06:43:56.735Z,3133.44
2018-06-29T06:44:58.544Z,3133.44
2018-06-29T06:46:14.698Z,3133.44
2018-06-29T06:46:59.075Z,3133.44
2018-06-29T06:48:02.239Z,3133.44
2018-06-29T06:49:07.855Z,3133.44
2018-06-29T06:50:01.449Z,3133.44
2018-06-29T06:51:05.686Z,3133.44
2018-06-29T06:52:11.152Z,3133.44
2018-06-29T06:53:06.022Z,3133.44
2018-06-29T06:54:11.949Z,3133.44
2018-06-29T06:55:08.196Z,3133.44
2018-06-29T06:56:09.190Z,3133.44
2018-06-29T06:57:06.752Z,3133.44
2018-06-29T06:58:08.572Z,3133.44
2018-06-29T07:02:15.116Z,3156.48
2018-06-29T07:03:15.886Z,3156.48
2018-06-29T07:04:16.659Z,3133.44
2018-06-29T07:05:17.448Z,3156.48
2018-06-29T07:06:18.387Z,3156.48
2018-06-29T07:07:18.085Z,3156.48
2018-06-29T07:08:19.859Z,3156.48
2018-06-29T07:09:20.637Z,3156.48
2018-06-29T07:10:21.437Z,3156.48
2018-06-29T07:11:22.205Z,3179.52
2018-06-29T07:12:22.995Z,3179.52
2018-06-29T07:13:22.755Z,3179.52
2018-06-29T07:14:24.521Z,3179.52
2018-06-29T07:15:25.315Z,3179.52
2018-06-29T07:16:26.091Z,3179.52
2018-06-29T07:17:26.859Z,3179.52
2018-06-29T07:18:27.630Z,3179.52
2018-06-29T07:19:28.577Z,3179.52
2018-06-29T07:20:28.302Z,3202.56
2018-06-29T07:21:36.126Z,3179.52
2018-06-29T07:22:29.846Z,69672.96
2018-06-29T07:23:31.617Z,70041.60
2018-06-29T07:24:31.457Z,70410.24
2018-06-29T07:25:32.186Z,71147.52
2018-06-29T07:26:33.957Z,71516.16
2018-06-29T07:27:34.732Z,71884.80
2018-06-29T07:28:35.502Z,72253.44
2018-06-29T07:29:36.276Z,72622.08
2018-06-29T07:30:37.068Z,72622.08
2018-06-29T07:31:37.845Z,72253.44
2018-06-29T07:32:38.617Z,72253.44
2018-06-29T07:33:39.386Z,72622.08
2018-06-29T07:34:40.157Z,72622.08
2018-06-29T07:35:40.953Z,72622.08
2018-06-29T07:36:41.724Z,72990.72
2018-06-29T07:37:42.496Z,74465.28
2018-06-29T07:38:43.331Z,75939.84
2018-06-29T07:39:43.043Z,77045.76
2018-06-29T07:40:44.837Z,77414.40
2018-06-29T07:41:45.610Z,76677.12
2018-06-29T07:42:46.385Z,76308.48
2018-06-29T07:43:47.158Z,75939.84
2018-06-29T07:44:47.927Z,75202.56
2018-06-29T07:45:48.722Z,75202.56
2018-06-29T07:46:49.495Z,75202.56
2018-06-29T07:47:50.279Z,75202.56
2018-06-29T07:48:51.040Z,75202.56
2018-06-29T07:49:51.814Z,74833.92
2018-06-29T07:50:52.613Z,74465.28
2018-06-29T07:51:53.383Z,74465.28
2018-06-29T07:52:54.213Z,74465.28
2018-06-29T07:53:53.931Z,75202.56
2018-06-29T07:54:55.704Z,76677.12
2018-06-29T07:55:56.499Z,77783.04
2018-06-29T07:56:57.273Z,77783.04
2018-06-29T07:57:58.044Z,77045.76
2018-06-29T07:58:58.816Z,75939.84
2018-06-29T07:59:59.592Z,74833.92
2018-06-29T08:01:00.384Z,74465.28
2018-06-29T08:02:01.161Z,74096.64
2018-06-29T08:03:01.929Z,74096.64
2018-06-29T08:04:02.710Z,74465.28
2018-06-29T08:05:03.482Z,74833.92
2018-06-29T08:06:04.272Z,74833.92
2018-06-29T08:07:05.056Z,75202.56
2018-06-29T08:08:05.827Z,75571.20
2018-06-29T08:09:06.599Z,75939.84
2018-06-29T08:10:07.368Z,75939.84
2018-06-29T08:11:08.169Z,76308.48
2018-06-29T08:12:08.949Z,75939.84
2018-06-29T08:13:09.748Z,75939.84
2018-06-29T08:14:10.485Z,75202.56
2018-06-29T08:15:11.256Z,74465.28
2018-06-29T08:16:12.057Z,74096.64
2018-06-29T08:17:12.828Z,74096.64
2018-06-29T08:18:13.606Z,74833.92
2018-06-29T08:19:14.375Z,75571.20
2018-06-29T08:20:15.208Z,76677.12
2018-06-29T08:21:14.949Z,76677.12
2018-06-29T08:22:15.719Z,77414.40
2018-06-29T08:23:17.490Z,77783.04
2018-06-29T08:24:18.278Z,77783.04
2018-06-29T08:25:19.038Z,77045.76
2018-06-29T08:26:19.837Z,76308.48
2018-06-29T08:27:20.610Z,75571.20
2018-06-29T08:28:21.383Z,75202.56
2018-06-29T08:29:22.149Z,74465.28
2018-06-29T08:30:22.923Z,74833.92
2018-06-29T08:31:23.728Z,75202.56
2018-06-29T08:32:24.502Z,75202.56
2018-06-29T08:33:25.273Z,75571.20
2018-06-29T08:34:26.055Z,75571.20
2018-06-29T08:35:26.823Z,74465.28
2018-06-29T08:36:27.617Z,74096.64
2018-06-29T08:37:28.392Z,74465.28
2018-06-29T08:38:29.161Z,74465.28
2018-06-29T08:39:29.935Z,74833.92
2018-06-29T08:40:30.705Z,74465.28
2018-06-29T08:41:31.502Z,74465.28
2018-06-29T08:42:32.271Z,73728.00
2018-06-29T08:43:33.046Z,72253.44
2018-06-29T08:44:33.825Z,71884.80
2018-06-29T08:45:34.641Z,70778.88
2018-06-29T08:46:34.388Z,69672.96
2018-06-29T08:47:35.158Z,69304.32
2018-06-29T08:48:36.927Z,69304.32
2018-06-29T08:49:37.806Z,69304.32
2018-06-29T08:50:37.471Z,70041.60
2018-06-29T08:51:39.267Z,71516.16
2018-06-29T08:52:40.041Z,73359.36
2018-06-29T08:53:40.816Z,75571.20
2018-06-29T08:54:41.587Z,76677.12
2018-06-29T08:55:42.361Z,76677.12
2018-06-29T08:56:43.155Z,75939.84
2018-06-29T08:57:43.926Z,74096.64
2018-06-29T08:58:44.759Z,72253.44
2018-06-29T08:59:44.474Z,70410.24
2018-06-29T09:00:46.252Z,69304.32
2018-06-29T09:01:47.410Z,68935.68
2018-06-29T09:12:47.164Z,68935.68
2018-06-29T09:13:47.962Z,67829.76
2018-06-29T09:14:48.731Z,67092.48
2018-06-29T09:15:49.502Z,67092.48
2018-06-29T09:16:50.274Z,67092.48
2018-06-29T09:17:51.042Z,68935.68
2018-06-29T09:18:51.837Z,70778.88
2018-06-29T09:19:52.611Z,72622.08
2018-06-29T09:20:53.385Z,73728.00
2018-06-29T09:21:54.152Z,74833.92
2018-06-29T09:22:54.923Z,74833.92
2018-06-29T09:23:55.719Z,75202.56
2018-06-29T09:24:56.490Z,77045.76
2018-06-29T09:25:57.260Z,77414.40
2018-06-29T09:26:58.033Z,77414.40
2018-06-29T09:27:58.804Z,77414.40
2018-06-29T09:28:59.602Z,76308.48
2018-06-29T09:30:00.441Z,75939.84
2018-06-29T09:31:00.143Z,75202.56
2018-06-29T09:32:01.916Z,75939.84
2018-06-29T09:33:02.685Z,76308.48
2018-06-29T09:34:03.480Z,75939.84
2018-06-29T09:35:04.255Z,76308.48
2018-06-29T09:36:05.024Z,77045.76
2018-06-29T09:37:05.793Z,78520.32
2018-06-29T09:38:06.565Z,79626.24
2018-06-29T09:39:07.363Z,79994.88
2018-06-29T09:40:08.139Z,80363.52
2018-06-29T09:41:08.907Z,80732.16
2018-06-29T09:42:09.677Z,80732.16
2018-06-29T09:43:10.453Z,81100.80
2018-06-29T09:44:11.247Z,80732.16
2018-06-29T09:45:12.021Z,80363.52
2018-06-29T09:46:12.789Z,79257.60
2018-06-29T09:47:13.566Z,77045.76
2018-06-29T09:48:14.338Z,74465.28
2018-06-29T09:49:15.132Z,71516.16
2018-06-29T09:50:15.907Z,69672.96
2018-06-29T09:51:16.678Z,68567.04
2018-06-29T09:52:17.453Z,68935.68
2018-06-29T09:53:18.224Z,69304.32
2018-06-29T09:54:19.019Z,71147.52
2018-06-29T09:55:19.794Z,73359.36
2018-06-29T09:56:20.567Z,75202.56
2018-06-29T09:57:21.336Z,76308.48
2018-06-29T09:58:22.109Z,76677.12
2018-06-29T09:59:22.907Z,76308.48
2018-06-29T10:00:23.682Z,75202.56
2018-06-29T10:01:24.463Z,74096.64
2018-06-29T10:02:24.225Z,73359.36
2018-06-29T10:03:25.997Z,72622.08
2018-06-29T10:04:26.796Z,70778.88
2018-06-29T10:05:27.572Z,69672.96
2018-06-29T10:06:28.384Z,68935.68
2018-06-29T10:07:28.125Z,67829.76
2018-06-29T10:08:29.888Z,67092.48
2018-06-29T10:09:30.683Z,66723.84
2018-06-29T10:10:31.458Z,66723.84
2018-06-29T10:11:32.231Z,66723.84
2018-06-29T10:12:33.005Z,67461.12
2018-06-29T10:13:33.778Z,69304.32
2018-06-29T10:14:34.575Z,70778.88
2018-06-29T10:15:35.345Z,70778.88
2018-06-29T10:16:36.121Z,70410.24
2018-06-29T10:17:36.890Z,71147.52
2018-06-29T10:18:37.659Z,71147.52
2018-06-29T10:19:38.609Z,70778.88
2018-06-29T10:20:38.235Z,70410.24
2018-06-29T10:21:40.004Z,69304.32
2018-06-29T10:22:40.778Z,67461.12
2018-06-29T10:23:41.549Z,65986.56
2018-06-29T10:24:42.343Z,63774.72
2018-06-29T10:25:43.121Z,63037.44
2018-06-29T10:26:43.888Z,63774.72
2018-06-29T10:27:44.663Z,64143.36
2018-06-29T10:28:45.436Z,63406.08
2018-06-29T10:29:46.241Z,64512.00
2018-06-29T10:30:47.025Z,65249.28
2018-06-29T10:31:46.781Z,65986.56
2018-06-29T10:32:48.551Z,66723.84
2018-06-29T10:33:49.324Z,67829.76
2018-06-29T10:34:50.119Z,68198.40
2018-06-29T10:35:50.898Z,69304.32
2018-06-29T10:36:51.721Z,70410.24
2018-06-29T10:37:51.439Z,70041.60
2018-06-29T10:38:53.215Z,70410.24
2018-06-29T10:39:54.006Z,72253.44
2018-06-29T10:40:54.780Z,72253.44
2018-06-29T10:41:55.551Z,71884.80
2018-06-29T10:42:56.326Z,71884.80
2018-06-29T10:43:57.094Z,72253.44
2018-06-29T10:44:57.917Z,71516.16
2018-06-29T10:45:58.664Z,13363.20
2018-06-29T10:46:59.436Z,11704.32
2018-06-29T10:48:00.207Z,28016.64
2018-06-29T10:49:00.981Z,16957.44
2018-06-29T10:50:01.778Z,10874.88
2018-06-29T10:51:02.554Z,21012.48
2018-06-29T10:52:03.323Z,61931.52
2018-06-29T10:53:04.096Z,76677.12
2018-06-29T10:54:04.870Z,77045.76
2018-06-29T10:55:05.666Z,74096.64
2018-06-29T10:56:06.436Z,72622.08
2018-06-29T10:57:07.212Z,72253.44
2018-06-29T10:58:07.988Z,70778.88
2018-06-29T10:59:08.775Z,68935.68
2018-06-29T11:00:09.589Z,69672.96
2018-06-29T11:01:10.336Z,70041.60
2018-06-29T11:02:11.117Z,68198.40
2018-06-29T11:03:11.912Z,66355.20
2018-06-29T11:04:15.572Z,69304.32
2018-06-29T11:05:53.905Z,66723.84
2018-06-29T11:06:49.959Z,69672.96
2018-06-29T11:07:51.732Z,68935.68
2018-06-29T11:09:33.178Z,67829.76
2018-06-29T11:09:52.288Z,67461.12
2018-06-29T11:10:54.117Z,66723.84
2018-06-29T11:11:53.855Z,65617.92
2018-06-29T11:12:55.626Z,63406.08
2018-06-29T11:13:56.396Z,39444.48
2018-06-29T11:14:57.167Z,10828.80
2018-06-29T11:15:57.964Z,5852.16
2018-06-29T11:16:58.734Z,5391.36
2018-06-29T11:17:59.516Z,5160.96
2018-06-29T11:19:00.279Z,4999.68
2018-06-29T11:20:01.058Z,4861.44
2018-06-29T11:21:01.852Z,4723.20
2018-06-29T11:22:02.625Z,4561.92
2018-06-29T11:23:03.393Z,4400.64
2018-06-29T11:24:04.169Z,4239.36
2018-06-29T11:25:04.948Z,4147.20
2018-06-29T11:26:05.736Z,4078.08
2018-06-29T11:27:06.507Z,4032.00
2018-06-29T11:28:07.282Z,4008.96
2018-06-29T11:29:08.054Z,3985.92
2018-06-29T11:30:08.832Z,3962.88
2018-06-29T11:31:08.628Z,3985.92
2018-06-29T11:32:10.401Z,3962.88
2018-06-29T11:33:11.175Z,306.72
2018-06-29T11:34:11.952Z,290.88
2018-06-29T11:35:12.727Z,275.04
2018-06-29T11:36:13.523Z,259.20
2018-06-29T11:37:14.291Z,247.68
2018-06-29T11:38:15.067Z,237.60
2018-06-29T11:39:15.857Z,228.96
2018-06-29T11:40:16.624Z,221.76
2018-06-29T11:41:17.459Z,216.00
2018-06-29T11:42:17.192Z,208.80
2018-06-29T11:43:18.991Z,205.92
2018-06-29T11:44:19.739Z,198.72
2018-06-29T11:45:20.521Z,195.84
2018-06-29T11:46:21.309Z,188.64
2018-06-29T11:47:21.082Z,185.76
2018-06-29T11:48:22.860Z,184.32
2018-06-29T11:49:23.627Z,180.72
2018-06-29T11:50:24.398Z,177.12
2018-06-29T11:51:25.198Z,175.68
2018-06-29T11:52:24.978Z,172.80
2018-06-29T11:53:26.743Z,169.20
2018-06-29T11:54:27.514Z,170.64
2018-06-29T11:55:31.305Z,176.40
2018-06-29T11:56:29.090Z,182.88
2018-06-29T11:57:32.904Z,190.08
2018-06-29T11:58:32.905Z,191.52
2018-06-29T11:59:30.452Z,183.60
2018-06-29T12:00:32.248Z,167.76
2018-06-29T12:01:33.039Z,162.72
2018-06-29T12:02:33.852Z,156.24
2018-06-29T12:03:34.620Z,37232.64
2018-06-29T12:04:35.392Z,37785.60
2018-06-29T12:05:36.167Z,37969.92
2018-06-29T12:06:36.961Z,37416.96
2018-06-29T12:07:37.732Z,37048.32
2018-06-29T12:08:38.504Z,36864.00
2018-06-29T12:09:39.276Z,36126.72
2018-06-29T12:10:40.062Z,36126.72
2018-06-29T12:11:40.853Z,35942.40
2018-06-29T12:12:40.819Z,36311.04
2018-06-29T12:13:41.513Z,34836.48
2018-06-29T12:14:43.327Z,34283.52
2018-06-29T12:15:43.056Z,33914.88
2018-06-29T12:16:44.850Z,33546.24
2018-06-29T12:17:45.629Z,30781.44
2018-06-29T12:18:46.395Z,25989.12
2018-06-29T12:19:47.172Z,17510.40
2018-06-29T12:20:48.092Z,8893.44
2018-06-29T12:21:47.797Z,6359.04
2018-06-29T12:22:49.566Z,6405.12
2018-06-29T12:23:50.614Z,6497.28
2018-06-29T12:24:50.310Z,6543.36
2018-06-29T12:25:52.082Z,6543.36
2018-06-29T12:26:52.874Z,6635.52
2018-06-29T12:27:53.664Z,6773.76
2018-06-29T12:28:54.419Z,6958.08
2018-06-29T12:29:55.192Z,7050.24
2018-06-29T12:30:55.964Z,6912.00
2018-06-29T12:31:56.757Z,6635.52
2018-06-29T12:32:57.529Z,6359.04
2018-06-29T12:33:58.305Z,6220.80
2018-06-29T12:34:59.079Z,6082.56
2018-06-29T12:35:59.854Z,5944.32
2018-06-29T12:37:00.646Z,5875.20
2018-06-29T12:38:01.478Z,5875.20
2018-06-29T12:39:01.191Z,5852.16
2018-06-29T12:40:02.964Z,5783.04
2018-06-29T12:41:03.738Z,5760.00
2018-06-29T12:42:04.535Z,5990.40
2018-06-29T12:43:05.306Z,6220.80
2018-06-29T12:44:06.079Z,6220.80
2018-06-29T12:45:06.851Z,5806.08
2018-06-29T12:46:07.630Z,5483.52
2018-06-29T12:47:07.418Z,5414.40
2018-06-29T12:48:09.191Z,5391.36
2018-06-29T12:49:09.969Z,5414.40
2018-06-29T12:50:10.736Z,5414.40
2018-06-29T12:51:11.506Z,5437.44
2018-06-29T12:52:12.303Z,5437.44
2018-06-29T12:53:13.077Z,5460.48
2018-06-29T12:54:13.849Z,5437.44
2018-06-29T12:55:14.626Z,5437.44
2018-06-29T12:56:15.395Z,5414.40
2018-06-29T12:57:16.227Z,5391.36
2018-06-29T12:58:16.192Z,5322.24
2018-06-29T12:59:16.889Z,5345.28
2018-06-29T13:00:18.659Z,5299.20
2018-06-29T13:01:19.436Z,5230.08
2018-06-29T13:02:20.227Z,5207.04
2018-06-29T13:03:21.003Z,5137.92
2018-06-29T13:04:21.773Z,5068.80
2018-06-29T13:05:22.631Z,4999.68
2018-06-29T13:06:22.321Z,4953.60
2018-06-29T13:07:25.460Z,4930.56
2018-06-29T13:08:24.855Z,4907.52
2018-06-29T13:09:25.060Z,4861.44
2018-06-29T13:10:24.253Z,4861.44
2018-06-29T13:13:38.106Z,4769.28
2018-06-29T13:14:38.877Z,4723.20
2018-06-29T13:15:39.648Z,4700.16
2018-06-29T13:16:40.419Z,4677.12
2018-06-29T13:17:41.191Z,4631.04
2018-06-29T13:18:41.984Z,4631.04
2018-06-29T13:19:42.755Z,4631.04
2018-06-29T13:20:43.526Z,4608.00
2018-06-29T13:21:44.306Z,4584.96
2018-06-29T13:22:44.069Z,4608.00
2018-06-29T13:23:45.864Z,4584.96
2018-06-29T13:24:46.672Z,4561.92
2018-06-29T13:25:46.411Z,4561.92
2018-06-29T13:26:48.178Z,4561.92
2018-06-29T13:27:48.952Z,4538.88
2018-06-29T13:28:49.742Z,4515.84
2018-06-29T13:29:50.558Z,4492.80
2018-06-29T13:30:51.398Z,4515.84
2018-06-29T13:31:51.088Z,3985.92
2018-06-29T13:32:52.859Z,3870.72
2018-06-29T13:33:53.703Z,4584.96
2018-06-29T13:34:53.437Z,4608.00
2018-06-29T13:35:55.205Z,3824.64
2018-06-29T13:36:55.981Z,3709.44
2018-06-29T13:37:56.749Z,3686.40
2018-06-29T13:38:57.546Z,3640.32